sensor_id;sensor_type;location;lat;lon;timestamp;temperature;humidity
33739;DHT22;20063;51.730;11.110;2023-06-10T00:02:03;15.80;99.90
33739;DHT22;20063;51.730;11.110;2023-06-10T00:04:29;15.70;99.90
33739;DHT22;20063;51.730;11.110;2023-06-10T00:06:54;15.70;99.90
33739;DHT22;20063;51.730;11.110;2023-06-10T00:09:20;15.60;99.90
33739;DHT22;20063;51.730;11.110;2023-06-10T00:11:47;15.60;99.90
33739;DHT22;20063;51.730;11.110;2023-06-10T00:14:13;15.60;99.90
33739;DHT22;20063;51.730;11.110;2023-06-10T00:16:38;15.60;99.90
33739;DHT22;20063;51.730;11.110;2023-06-10T00:19:04;15.50;99.90
33739;DHT22;20063;51.730;11.110;2023-06-10T00:21:32;15.60;99.90
33739;DHT22;20063;51.730;11.110;2023-06-10T00:24:06;15.50;99.90
33739;DHT22;20063;51.730;11.110;2023-06-10T00:26:32;15.50;99.90
33739;DHT22;20063;51.730;11.110;2023-06-10T00:28:59;15.40;99.90
33739;DHT22;20063;51.730;11.110;2023-06-10T00:31:25;15.40;99.90
33739;DHT22;20063;51.730;11.110;2023-06-10T00:33:52;15.40;99.90
33739;DHT22;20063;51.730;11.110;2023-06-10T00:36:18;15.30;99.90
33739;DHT22;20063;51.730;11.110;2023-06-10T00:38:43;15.30;99.90
33739;DHT22;20063;51.730;11.110;2023-06-10T00:41:09;15.30;99.90
33739;DHT22;20063;51.730;11.110;2023-06-10T00:43:35;15.30;99.90
33739;DHT22;20063;51.730;11.110;2023-06-10T00:46:00;15.20;99.90
33739;DHT22;20063;51.730;11.110;2023-06-10T00:48:27;15.10;99.90
33739;DHT22;20063;51.730;11.110;2023-06-10T00:50:53;15.10;99.90
33739;DHT22;20063;51.730;11.110;2023-06-10T00:53:19;15.10;99.90
33739;DHT22;20063;51.730;11.110;2023-06-10T00:55:46;15.00;99.90
33739;DHT22;20063;51.730;11.110;2023-06-10T00:58:12;15.00;99.90
33739;DHT22;20063;51.730;11.110;2023-06-10T01:00:38;15.00;99.90
33739;DHT22;20063;51.730;11.110;2023-06-10T01:03:04;15.00;99.90
33739;DHT22;20063;51.730;11.110;2023-06-10T01:05:34;14.90;99.90
33739;DHT22;20063;51.730;11.110;2023-06-10T01:13:03;14.90;99.90
33739;DHT22;20063;51.730;11.110;2023-06-10T01:15:33;14.90;99.90
33739;DHT22;20063;51.730;11.110;2023-06-10T01:18:03;14.80;99.90
33739;DHT22;20063;51.730;11.110;2023-06-10T01:20:33;14.80;99.90
33739;DHT22;20063;51.730;11.110;2023-06-10T01:22:59;14.80;99.90
33739;DHT22;20063;51.730;11.110;2023-06-10T01:25:27;14.70;99.90
33739;DHT22;20063;51.730;11.110;2023-06-10T01:30:53;14.70;99.90
33739;DHT22;20063;51.730;11.110;2023-06-10T01:33:28;14.70;99.90
33739;DHT22;20063;51.730;11.110;2023-06-10T01:35:59;14.70;99.90
33739;DHT22;20063;51.730;11.110;2023-06-10T01:38:27;14.70;99.90
33739;DHT22;20063;51.730;11.110;2023-06-10T01:40:53;14.70;99.90
33739;DHT22;20063;51.730;11.110;2023-06-10T01:43:21;14.70;99.90
33739;DHT22;20063;51.730;11.110;2023-06-10T01:45:46;14.70;99.90
33739;DHT22;20063;51.730;11.110;2023-06-10T01:48:12;14.70;99.90
33739;DHT22;20063;51.730;11.110;2023-06-10T01:50:38;14.60;99.90
33739;DHT22;20063;51.730;11.110;2023-06-10T01:53:04;14.60;99.90
33739;DHT22;20063;51.730;11.110;2023-06-10T01:55:30;14.50;99.90
33739;DHT22;20063;51.730;11.110;2023-06-10T01:57:56;14.50;99.90
33739;DHT22;20063;51.730;11.110;2023-06-10T02:00:21;14.40;99.90
33739;DHT22;20063;51.730;11.110;2023-06-10T02:02:47;14.40;99.90
33739;DHT22;20063;51.730;11.110;2023-06-10T02:05:12;14.40;99.90
33739;DHT22;20063;51.730;11.110;2023-06-10T02:07:38;14.30;99.90
33739;DHT22;20063;51.730;11.110;2023-06-10T02:10:05;14.30;99.90
33739;DHT22;20063;51.730;11.110;2023-06-10T02:12:30;14.30;99.90
33739;DHT22;20063;51.730;11.110;2023-06-10T02:14:56;14.20;99.90
33739;DHT22;20063;51.730;11.110;2023-06-10T02:17:25;14.20;99.90
33739;DHT22;20063;51.730;11.110;2023-06-10T02:19:51;14.20;99.90
33739;DHT22;20063;51.730;11.110;2023-06-10T02:22:21;14.20;99.90
33739;DHT22;20063;51.730;11.110;2023-06-10T02:24:47;14.20;99.90
33739;DHT22;20063;51.730;11.110;2023-06-10T02:27:12;14.20;99.90
33739;DHT22;20063;51.730;11.110;2023-06-10T02:29:38;14.10;99.90
33739;DHT22;20063;51.730;11.110;2023-06-10T02:32:04;14.10;99.90
33739;DHT22;20063;51.730;11.110;2023-06-10T02:34:30;14.00;99.90
33739;DHT22;20063;51.730;11.110;2023-06-10T02:36:56;14.00;99.90
33739;DHT22;20063;51.730;11.110;2023-06-10T02:39:22;14.00;99.90
33739;DHT22;20063;51.730;11.110;2023-06-10T02:41:50;14.00;99.90
33739;DHT22;20063;51.730;11.110;2023-06-10T02:44:18;14.00;99.90
33739;DHT22;20063;51.730;11.110;2023-06-10T02:46:44;14.00;99.90
33739;DHT22;20063;51.730;11.110;2023-06-10T02:49:10;14.00;99.90
33739;DHT22;20063;51.730;11.110;2023-06-10T02:51:36;14.00;99.90
33739;DHT22;20063;51.730;11.110;2023-06-10T02:54:05;14.00;99.90
33739;DHT22;20063;51.730;11.110;2023-06-10T02:56:30;14.00;99.90
33739;DHT22;20063;51.730;11.110;2023-06-10T02:58:58;14.00;99.90
33739;DHT22;20063;51.730;11.110;2023-06-10T03:01:24;13.90;99.90
33739;DHT22;20063;51.730;11.110;2023-06-10T03:03:49;13.90;99.90
33739;DHT22;20063;51.730;11.110;2023-06-10T03:06:15;13.80;99.90
33739;DHT22;20063;51.730;11.110;2023-06-10T03:08:41;13.80;99.90
33739;DHT22;20063;51.730;11.110;2023-06-10T03:11:06;13.80;99.90
33739;DHT22;20063;51.730;11.110;2023-06-10T03:13:32;13.80;99.90
33739;DHT22;20063;51.730;11.110;2023-06-10T03:15:59;13.70;99.90
33739;DHT22;20063;51.730;11.110;2023-06-10T03:18:27;13.70;99.90
33739;DHT22;20063;51.730;11.110;2023-06-10T03:20:54;13.60;99.90
33739;DHT22;20063;51.730;11.110;2023-06-10T03:23:20;13.60;99.90
33739;DHT22;20063;51.730;11.110;2023-06-10T03:25:46;13.60;99.90
33739;DHT22;20063;51.730;11.110;2023-06-10T03:28:11;13.60;99.90
33739;DHT22;20063;51.730;11.110;2023-06-10T03:30:38;13.60;99.90
33739;DHT22;20063;51.730;11.110;2023-06-10T03:33:03;13.60;99.90
33739;DHT22;20063;51.730;11.110;2023-06-10T03:35:29;13.50;99.90
33739;DHT22;20063;51.730;11.110;2023-06-10T03:37:55;13.50;99.90
33739;DHT22;20063;51.730;11.110;2023-06-10T03:40:20;13.50;99.90
33739;DHT22;20063;51.730;11.110;2023-06-10T03:42:46;13.50;99.90
33739;DHT22;20063;51.730;11.110;2023-06-10T03:45:12;13.60;99.90
33739;DHT22;20063;51.730;11.110;2023-06-10T03:47:38;13.50;99.90
33739;DHT22;20063;51.730;11.110;2023-06-10T03:50:06;13.60;99.90
33739;DHT22;20063;51.730;11.110;2023-06-10T03:52:32;13.60;99.90
33739;DHT22;20063;51.730;11.110;2023-06-10T03:54:57;13.60;99.90
33739;DHT22;20063;51.730;11.110;2023-06-10T03:57:23;13.60;99.90
33739;DHT22;20063;51.730;11.110;2023-06-10T03:59:48;13.60;99.90
33739;DHT22;20063;51.730;11.110;2023-06-10T04:02:14;13.70;99.90
33739;DHT22;20063;51.730;11.110;2023-06-10T04:04:40;13.80;99.90
33739;DHT22;20063;51.730;11.110;2023-06-10T04:07:06;13.80;99.90
33739;DHT22;20063;51.730;11.110;2023-06-10T04:09:33;13.80;99.90
33739;DHT22;20063;51.730;11.110;2023-06-10T04:11:59;13.80;99.90
33739;DHT22;20063;51.730;11.110;2023-06-10T04:14:24;13.90;99.90
33739;DHT22;20063;51.730;11.110;2023-06-10T04:16:50;13.90;99.90
33739;DHT22;20063;51.730;11.110;2023-06-10T04:19:16;14.00;99.90
33739;DHT22;20063;51.730;11.110;2023-06-10T04:21:42;14.00;99.90
33739;DHT22;20063;51.730;11.110;2023-06-10T04:24:07;14.20;99.90
33739;DHT22;20063;51.730;11.110;2023-06-10T04:26:35;14.20;99.90
33739;DHT22;20063;51.730;11.110;2023-06-10T04:29:01;14.30;99.90
33739;DHT22;20063;51.730;11.110;2023-06-10T04:31:26;14.30;99.90
33739;DHT22;20063;51.730;11.110;2023-06-10T04:33:52;14.30;99.90
33739;DHT22;20063;51.730;11.110;2023-06-10T04:36:17;14.30;99.90
33739;DHT22;20063;51.730;11.110;2023-06-10T04:38:43;14.30;99.90
33739;DHT22;20063;51.730;11.110;2023-06-10T04:41:08;14.40;99.90
33739;DHT22;20063;51.730;11.110;2023-06-10T04:43:34;14.40;99.90
33739;DHT22;20063;51.730;11.110;2023-06-10T04:46:00;14.50;99.90
33739;DHT22;20063;51.730;11.110;2023-06-10T04:48:25;14.50;99.90
33739;DHT22;20063;51.730;11.110;2023-06-10T04:50:51;14.50;99.90
33739;DHT22;20063;51.730;11.110;2023-06-10T04:53:17;14.60;99.90
33739;DHT22;20063;51.730;11.110;2023-06-10T04:55:42;14.60;99.90
33739;DHT22;20063;51.730;11.110;2023-06-10T04:58:09;14.50;99.90
33739;DHT22;20063;51.730;11.110;2023-06-10T05:00:34;14.50;99.90
33739;DHT22;20063;51.730;11.110;2023-06-10T05:03:00;14.60;99.90
33739;DHT22;20063;51.730;11.110;2023-06-10T05:05:25;14.60;99.90
33739;DHT22;20063;51.730;11.110;2023-06-10T05:07:51;14.60;99.90
33739;DHT22;20063;51.730;11.110;2023-06-10T05:10:17;14.60;99.90
33739;DHT22;20063;51.730;11.110;2023-06-10T05:12:42;14.70;99.90
33739;DHT22;20063;51.730;11.110;2023-06-10T05:15:08;14.70;99.90
33739;DHT22;20063;51.730;11.110;2023-06-10T05:17:34;14.70;99.90
33739;DHT22;20063;51.730;11.110;2023-06-10T05:20:03;14.70;99.90
33739;DHT22;20063;51.730;11.110;2023-06-10T05:22:29;14.70;99.90
33739;DHT22;20063;51.730;11.110;2023-06-10T05:24:55;14.70;99.90
33739;DHT22;20063;51.730;11.110;2023-06-10T05:27:21;14.80;99.90
33739;DHT22;20063;51.730;11.110;2023-06-10T05:29:47;14.80;99.90
33739;DHT22;20063;51.730;11.110;2023-06-10T05:32:13;14.80;99.90
33739;DHT22;20063;51.730;11.110;2023-06-10T05:34:39;14.80;99.90
33739;DHT22;20063;51.730;11.110;2023-06-10T05:37:05;14.80;99.90
33739;DHT22;20063;51.730;11.110;2023-06-10T05:39:30;14.80;99.90
33739;DHT22;20063;51.730;11.110;2023-06-10T05:41:56;14.80;99.90
33739;DHT22;20063;51.730;11.110;2023-06-10T05:44:24;14.80;99.90
33739;DHT22;20063;51.730;11.110;2023-06-10T05:46:50;14.80;99.90
33739;DHT22;20063;51.730;11.110;2023-06-10T05:49:16;14.90;99.90
33739;DHT22;20063;51.730;11.110;2023-06-10T05:51:41;14.90;99.90
33739;DHT22;20063;51.730;11.110;2023-06-10T05:54:07;15.00;99.90
33739;DHT22;20063;51.730;11.110;2023-06-10T05:56:32;15.00;99.90
33739;DHT22;20063;51.730;11.110;2023-06-10T05:58:58;15.00;99.90
33739;DHT22;20063;51.730;11.110;2023-06-10T06:01:24;15.00;99.90
33739;DHT22;20063;51.730;11.110;2023-06-10T06:03:49;15.00;99.90
33739;DHT22;20063;51.730;11.110;2023-06-10T06:06:15;14.90;99.90
33739;DHT22;20063;51.730;11.110;2023-06-10T06:08:41;14.90;99.90
33739;DHT22;20063;51.730;11.110;2023-06-10T06:11:06;14.90;99.90
33739;DHT22;20063;51.730;11.110;2023-06-10T06:13:33;15.00;99.90
33739;DHT22;20063;51.730;11.110;2023-06-10T06:15:58;15.00;99.90
33739;DHT22;20063;51.730;11.110;2023-06-10T06:18:24;15.00;99.90
33739;DHT22;20063;51.730;11.110;2023-06-10T06:20:51;15.00;99.90
33739;DHT22;20063;51.730;11.110;2023-06-10T06:23:17;15.00;99.90
33739;DHT22;20063;51.730;11.110;2023-06-10T06:25:42;15.00;99.90
33739;DHT22;20063;51.730;11.110;2023-06-10T06:28:09;15.00;99.90
33739;DHT22;20063;51.730;11.110;2023-06-10T06:30:35;15.00;99.90
33739;DHT22;20063;51.730;11.110;2023-06-10T06:33:01;15.10;99.90
33739;DHT22;20063;51.730;11.110;2023-06-10T06:35:26;15.10;99.90
33739;DHT22;20063;51.730;11.110;2023-06-10T06:37:52;15.10;99.90
33739;DHT22;20063;51.730;11.110;2023-06-10T06:40:18;15.10;99.90
33739;DHT22;20063;51.730;11.110;2023-06-10T06:42:44;15.20;99.90
33739;DHT22;20063;51.730;11.110;2023-06-10T06:45:10;15.20;99.90
33739;DHT22;20063;51.730;11.110;2023-06-10T06:47:35;15.20;99.90
33739;DHT22;20063;51.730;11.110;2023-06-10T06:50:01;15.20;99.90
33739;DHT22;20063;51.730;11.110;2023-06-10T06:52:27;15.30;99.90
33739;DHT22;20063;51.730;11.110;2023-06-10T06:54:53;15.30;99.90
33739;DHT22;20063;51.730;11.110;2023-06-10T06:57:18;15.30;99.90
33739;DHT22;20063;51.730;11.110;2023-06-10T06:59:44;15.40;99.90
33739;DHT22;20063;51.730;11.110;2023-06-10T07:02:10;15.50;99.90
33739;DHT22;20063;51.730;11.110;2023-06-10T07:04:36;15.50;99.90
33739;DHT22;20063;51.730;11.110;2023-06-10T07:07:01;15.50;99.90
33739;DHT22;20063;51.730;11.110;2023-06-10T07:09:28;15.60;99.90
33739;DHT22;20063;51.730;11.110;2023-06-10T07:11:54;15.70;99.90
33739;DHT22;20063;51.730;11.110;2023-06-10T07:14:19;15.70;99.90
33739;DHT22;20063;51.730;11.110;2023-06-10T07:16:45;15.70;99.90
33739;DHT22;20063;51.730;11.110;2023-06-10T07:19:13;15.70;99.90
33739;DHT22;20063;51.730;11.110;2023-06-10T07:21:41;15.80;99.90
33739;DHT22;20063;51.730;11.110;2023-06-10T07:24:07;15.80;99.90
33739;DHT22;20063;51.730;11.110;2023-06-10T07:26:32;15.80;99.90
33739;DHT22;20063;51.730;11.110;2023-06-10T07:28:58;15.90;99.90
33739;DHT22;20063;51.730;11.110;2023-06-10T07:31:23;15.90;99.90
33739;DHT22;20063;51.730;11.110;2023-06-10T07:33:50;16.00;99.90
33739;DHT22;20063;51.730;11.110;2023-06-10T07:36:15;15.90;99.90
33739;DHT22;20063;51.730;11.110;2023-06-10T07:38:41;16.00;99.90
33739;DHT22;20063;51.730;11.110;2023-06-10T07:41:08;16.00;99.90
33739;DHT22;20063;51.730;11.110;2023-06-10T07:43:34;15.90;99.90
33739;DHT22;20063;51.730;11.110;2023-06-10T07:46:00;16.00;99.90
33739;DHT22;20063;51.730;11.110;2023-06-10T07:48:25;16.00;99.90
33739;DHT22;20063;51.730;11.110;2023-06-10T07:50:52;15.90;99.90
33739;DHT22;20063;51.730;11.110;2023-06-10T07:53:17;16.00;99.90
33739;DHT22;20063;51.730;11.110;2023-06-10T07:55:43;16.10;99.90
33739;DHT22;20063;51.730;11.110;2023-06-10T07:58:09;16.20;99.90
33739;DHT22;20063;51.730;11.110;2023-06-10T08:00:35;16.30;99.90
33739;DHT22;20063;51.730;11.110;2023-06-10T08:03:01;16.30;99.90
33739;DHT22;20063;51.730;11.110;2023-06-10T08:05:26;16.40;99.90
33739;DHT22;20063;51.730;11.110;2023-06-10T08:07:52;16.50;99.90
33739;DHT22;20063;51.730;11.110;2023-06-10T08:10:21;16.60;99.90
33739;DHT22;20063;51.730;11.110;2023-06-10T08:12:46;16.70;99.90
33739;DHT22;20063;51.730;11.110;2023-06-10T08:15:12;16.70;99.90
33739;DHT22;20063;51.730;11.110;2023-06-10T08:17:37;16.70;99.90
33739;DHT22;20063;51.730;11.110;2023-06-10T08:20:04;16.80;99.90
33739;DHT22;20063;51.730;11.110;2023-06-10T08:22:31;16.90;99.90
33739;DHT22;20063;51.730;11.110;2023-06-10T08:24:56;17.00;99.90
33739;DHT22;20063;51.730;11.110;2023-06-10T08:27:22;17.10;99.90
33739;DHT22;20063;51.730;11.110;2023-06-10T08:29:48;17.10;99.90
33739;DHT22;20063;51.730;11.110;2023-06-10T08:32:13;17.20;99.90
33739;DHT22;20063;51.730;11.110;2023-06-10T08:34:39;17.30;99.90
33739;DHT22;20063;51.730;11.110;2023-06-10T08:37:05;17.40;99.90
33739;DHT22;20063;51.730;11.110;2023-06-10T08:39:30;17.40;99.90
33739;DHT22;20063;51.730;11.110;2023-06-10T08:42:45;17.60;99.90
33739;DHT22;20063;51.730;11.110;2023-06-10T08:44:55;17.60;99.90
33739;DHT22;20063;51.730;11.110;2023-06-10T08:47:23;17.80;99.90
33739;DHT22;20063;51.730;11.110;2023-06-10T08:49:48;17.90;99.90
33739;DHT22;20063;51.730;11.110;2023-06-10T08:52:16;18.00;99.90
33739;DHT22;20063;51.730;11.110;2023-06-10T08:54:52;18.00;99.90
33739;DHT22;20063;51.730;11.110;2023-06-10T08:57:18;18.20;99.90
33739;DHT22;20063;51.730;11.110;2023-06-10T08:59:46;18.20;99.90
33739;DHT22;20063;51.730;11.110;2023-06-10T09:02:15;18.30;99.90
33739;DHT22;20063;51.730;11.110;2023-06-10T09:04:42;18.40;99.90
33739;DHT22;20063;51.730;11.110;2023-06-10T09:07:09;18.40;99.90
33739;DHT22;20063;51.730;11.110;2023-06-10T09:09:36;18.60;99.90
33739;DHT22;20063;51.730;11.110;2023-06-10T09:12:03;18.60;99.90
33739;DHT22;20063;51.730;11.110;2023-06-10T09:14:29;18.70;99.90
33739;DHT22;20063;51.730;11.110;2023-06-10T09:16:55;18.80;99.90
33739;DHT22;20063;51.730;11.110;2023-06-10T09:19:24;18.80;99.90
33739;DHT22;20063;51.730;11.110;2023-06-10T09:21:50;18.80;99.90
33739;DHT22;20063;51.730;11.110;2023-06-10T09:24:16;18.90;99.90
33739;DHT22;20063;51.730;11.110;2023-06-10T09:26:43;18.90;99.90
33739;DHT22;20063;51.730;11.110;2023-06-10T09:29:09;18.90;99.90
33739;DHT22;20063;51.730;11.110;2023-06-10T09:31:38;19.00;99.90
33739;DHT22;20063;51.730;11.110;2023-06-10T09:34:08;19.10;99.90
33739;DHT22;20063;51.730;11.110;2023-06-10T09:36:36;19.20;99.90
33739;DHT22;20063;51.730;11.110;2023-06-10T09:39:02;19.20;99.90
33739;DHT22;20063;51.730;11.110;2023-06-10T09:41:35;19.30;99.90
33739;DHT22;20063;51.730;11.110;2023-06-10T09:44:01;19.40;99.90
33739;DHT22;20063;51.730;11.110;2023-06-10T09:46:31;19.50;99.90
33739;DHT22;20063;51.730;11.110;2023-06-10T09:48:58;19.60;99.90
33739;DHT22;20063;51.730;11.110;2023-06-10T09:51:23;19.60;99.90
33739;DHT22;20063;51.730;11.110;2023-06-10T09:53:51;19.70;99.90
33739;DHT22;20063;51.730;11.110;2023-06-10T09:56:18;19.70;99.90
33739;DHT22;20063;51.730;11.110;2023-06-10T09:59:15;19.80;99.90
33739;DHT22;20063;51.730;11.110;2023-06-10T10:01:42;19.90;99.90
33739;DHT22;20063;51.730;11.110;2023-06-10T10:04:08;20.00;99.90
33739;DHT22;20063;51.730;11.110;2023-06-10T10:06:34;20.10;99.90
33739;DHT22;20063;51.730;11.110;2023-06-10T10:09:00;20.10;99.90
33739;DHT22;20063;51.730;11.110;2023-06-10T10:11:27;20.20;99.90
33739;DHT22;20063;51.730;11.110;2023-06-10T10:13:53;20.40;99.90
33739;DHT22;20063;51.730;11.110;2023-06-10T10:16:46;20.50;99.90
33739;DHT22;20063;51.730;11.110;2023-06-10T10:19:16;20.60;99.90
33739;DHT22;20063;51.730;11.110;2023-06-10T10:21:50;20.70;99.90
33739;DHT22;20063;51.730;11.110;2023-06-10T10:24:21;20.80;99.90
33739;DHT22;20063;51.730;11.110;2023-06-10T10:26:50;20.80;99.90
33739;DHT22;20063;51.730;11.110;2023-06-10T10:29:37;20.90;99.90
33739;DHT22;20063;51.730;11.110;2023-06-10T10:32:04;21.00;99.90
33739;DHT22;20063;51.730;11.110;2023-06-10T10:35:07;21.10;99.90
33739;DHT22;20063;51.730;11.110;2023-06-10T10:37:33;21.10;99.90
33739;DHT22;20063;51.730;11.110;2023-06-10T10:40:00;21.20;99.90
33739;DHT22;20063;51.730;11.110;2023-06-10T10:42:27;21.30;99.90
33739;DHT22;20063;51.730;11.110;2023-06-10T10:44:53;21.40;99.90
33739;DHT22;20063;51.730;11.110;2023-06-10T10:47:21;21.40;99.90
33739;DHT22;20063;51.730;11.110;2023-06-10T10:49:51;21.50;99.90
33739;DHT22;20063;51.730;11.110;2023-06-10T10:52:18;21.50;99.90
33739;DHT22;20063;51.730;11.110;2023-06-10T10:54:46;21.60;99.90
33739;DHT22;20063;51.730;11.110;2023-06-10T10:57:19;21.70;99.90
33739;DHT22;20063;51.730;11.110;2023-06-10T10:59:46;21.60;99.90
33739;DHT22;20063;51.730;11.110;2023-06-10T11:05:01;21.70;99.90
33739;DHT22;20063;51.730;11.110;2023-06-10T11:07:34;21.80;99.90
33739;DHT22;20063;51.730;11.110;2023-06-10T11:10:02;21.90;99.90
33739;DHT22;20063;51.730;11.110;2023-06-10T11:15:07;21.90;99.90
33739;DHT22;20063;51.730;11.110;2023-06-10T11:17:33;22.00;99.90
33739;DHT22;20063;51.730;11.110;2023-06-10T11:19:58;22.00;99.90
33739;DHT22;20063;51.730;11.110;2023-06-10T11:22:24;22.10;99.90
33739;DHT22;20063;51.730;11.110;2023-06-10T11:24:50;22.20;99.90
33739;DHT22;20063;51.730;11.110;2023-06-10T11:27:20;22.20;99.90
33739;DHT22;20063;51.730;11.110;2023-06-10T11:30:18;22.30;99.90
33739;DHT22;20063;51.730;11.110;2023-06-10T11:32:45;22.50;99.90
33739;DHT22;20063;51.730;11.110;2023-06-10T11:35:10;22.50;99.90
33739;DHT22;20063;51.730;11.110;2023-06-10T11:37:36;22.60;99.90
33739;DHT22;20063;51.730;11.110;2023-06-10T11:40:06;22.60;99.90
33739;DHT22;20063;51.730;11.110;2023-06-10T11:42:32;22.80;99.90
33739;DHT22;20063;51.730;11.110;2023-06-10T11:44:58;22.90;99.90
33739;DHT22;20063;51.730;11.110;2023-06-10T11:47:25;23.00;99.90
33739;DHT22;20063;51.730;11.110;2023-06-10T11:49:58;23.10;99.90
33739;DHT22;20063;51.730;11.110;2023-06-10T11:52:31;23.30;99.90
33739;DHT22;20063;51.730;11.110;2023-06-10T11:55:05;23.40;99.90
33739;DHT22;20063;51.730;11.110;2023-06-10T11:57:34;23.40;99.90
33739;DHT22;20063;51.730;11.110;2023-06-10T12:00:07;23.40;99.90
33739;DHT22;20063;51.730;11.110;2023-06-10T12:02:33;23.40;99.90
33739;DHT22;20063;51.730;11.110;2023-06-10T12:05:12;23.40;99.90
33739;DHT22;20063;51.730;11.110;2023-06-10T12:07:38;23.50;99.90
33739;DHT22;20063;51.730;11.110;2023-06-10T12:10:04;23.60;99.90
33739;DHT22;20063;51.730;11.110;2023-06-10T12:12:30;23.60;99.90
33739;DHT22;20063;51.730;11.110;2023-06-10T12:14:57;23.60;99.90
33739;DHT22;20063;51.730;11.110;2023-06-10T12:19:59;23.80;99.90
33739;DHT22;20063;51.730;11.110;2023-06-10T12:22:25;23.90;99.90
33739;DHT22;20063;51.730;11.110;2023-06-10T12:24:59;23.90;99.90
33739;DHT22;20063;51.730;11.110;2023-06-10T12:27:25;24.00;99.90
33739;DHT22;20063;51.730;11.110;2023-06-10T12:29:52;24.00;99.90
33739;DHT22;20063;51.730;11.110;2023-06-10T12:32:20;24.10;99.90
33739;DHT22;20063;51.730;11.110;2023-06-10T12:34:50;24.20;99.90
33739;DHT22;20063;51.730;11.110;2023-06-10T12:37:27;24.20;99.90
33739;DHT22;20063;51.730;11.110;2023-06-10T12:39:52;24.20;99.90
33739;DHT22;20063;51.730;11.110;2023-06-10T12:42:22;24.20;99.90
33739;DHT22;20063;51.730;11.110;2023-06-10T12:44:53;24.30;99.90
33739;DHT22;20063;51.730;11.110;2023-06-10T12:47:18;24.40;99.90
33739;DHT22;20063;51.730;11.110;2023-06-10T12:49:44;24.40;99.90
33739;DHT22;20063;51.730;11.110;2023-06-10T12:52:10;24.40;99.90
33739;DHT22;20063;51.730;11.110;2023-06-10T12:54:35;24.40;99.90
33739;DHT22;20063;51.730;11.110;2023-06-10T12:57:01;24.40;99.90
33739;DHT22;20063;51.730;11.110;2023-06-10T12:59:27;24.40;99.90
33739;DHT22;20063;51.730;11.110;2023-06-10T13:01:56;24.40;99.90
33739;DHT22;20063;51.730;11.110;2023-06-10T13:04:21;24.50;99.90
33739;DHT22;20063;51.730;11.110;2023-06-10T13:06:48;24.60;99.90
33739;DHT22;20063;51.730;11.110;2023-06-10T13:09:14;24.60;99.90
33739;DHT22;20063;51.730;11.110;2023-06-10T13:11:41;24.60;99.90
33739;DHT22;20063;51.730;11.110;2023-06-10T13:14:08;24.60;99.90
33739;DHT22;20063;51.730;11.110;2023-06-10T13:16:33;24.60;99.90
33739;DHT22;20063;51.730;11.110;2023-06-10T13:18:59;24.70;99.90
33739;DHT22;20063;51.730;11.110;2023-06-10T13:21:26;24.70;99.90
33739;DHT22;20063;51.730;11.110;2023-06-10T13:23:52;24.70;99.90
33739;DHT22;20063;51.730;11.110;2023-06-10T13:26:18;24.80;99.90
33739;DHT22;20063;51.730;11.110;2023-06-10T13:28:44;24.80;99.90
33739;DHT22;20063;51.730;11.110;2023-06-10T13:31:09;24.90;99.90
33739;DHT22;20063;51.730;11.110;2023-06-10T13:33:36;24.90;99.90
33739;DHT22;20063;51.730;11.110;2023-06-10T13:36:01;24.90;99.90
33739;DHT22;20063;51.730;11.110;2023-06-10T13:38:27;25.00;99.90
33739;DHT22;20063;51.730;11.110;2023-06-10T13:40:52;24.90;99.90
33739;DHT22;20063;51.730;11.110;2023-06-10T13:43:21;25.00;99.90
33739;DHT22;20063;51.730;11.110;2023-06-10T13:45:46;24.90;99.90
33739;DHT22;20063;51.730;11.110;2023-06-10T13:48:12;24.90;99.90
33739;DHT22;20063;51.730;11.110;2023-06-10T13:50:38;24.90;99.90
33739;DHT22;20063;51.730;11.110;2023-06-10T13:53:03;24.90;99.90
33739;DHT22;20063;51.730;11.110;2023-06-10T13:55:29;24.90;99.90
33739;DHT22;20063;51.730;11.110;2023-06-10T13:57:54;24.90;99.90
33739;DHT22;20063;51.730;11.110;2023-06-10T14:00:20;25.00;99.90
33739;DHT22;20063;51.730;11.110;2023-06-10T14:02:45;25.00;99.90
33739;DHT22;20063;51.730;11.110;2023-06-10T14:05:12;25.10;99.90
33739;DHT22;20063;51.730;11.110;2023-06-10T14:07:37;25.10;99.90
33739;DHT22;20063;51.730;11.110;2023-06-10T14:10:03;25.20;99.90
33739;DHT22;20063;51.730;11.110;2023-06-10T14:12:29;25.20;99.90
33739;DHT22;20063;51.730;11.110;2023-06-10T14:14:55;25.20;99.90
33739;DHT22;20063;51.730;11.110;2023-06-10T14:17:20;25.30;99.90
33739;DHT22;20063;51.730;11.110;2023-06-10T14:19:46;25.30;99.90
33739;DHT22;20063;51.730;11.110;2023-06-10T14:22:11;25.40;99.90
33739;DHT22;20063;51.730;11.110;2023-06-10T14:24:40;25.40;99.90
33739;DHT22;20063;51.730;11.110;2023-06-10T14:27:06;25.40;99.90
33739;DHT22;20063;51.730;11.110;2023-06-10T14:29:31;25.40;99.90
33739;DHT22;20063;51.730;11.110;2023-06-10T14:31:59;25.40;99.90
33739;DHT22;20063;51.730;11.110;2023-06-10T14:34:25;25.40;99.90
33739;DHT22;20063;51.730;11.110;2023-06-10T14:36:54;25.30;99.90
33739;DHT22;20063;51.730;11.110;2023-06-10T14:39:20;25.30;99.90
33739;DHT22;20063;51.730;11.110;2023-06-10T14:41:45;25.30;99.90
33739;DHT22;20063;51.730;11.110;2023-06-10T14:44:11;25.30;99.90
33739;DHT22;20063;51.730;11.110;2023-06-10T14:46:36;25.30;99.90
33739;DHT22;20063;51.730;11.110;2023-06-10T14:49:02;25.30;99.90
33739;DHT22;20063;51.730;11.110;2023-06-10T14:51:28;25.10;99.90
33739;DHT22;20063;51.730;11.110;2023-06-10T14:53:53;24.70;99.90
33739;DHT22;20063;51.730;11.110;2023-06-10T14:56:19;24.20;99.90
33739;DHT22;20063;51.730;11.110;2023-06-10T14:58:44;23.80;99.90
33739;DHT22;20063;51.730;11.110;2023-06-10T15:01:10;23.40;99.90
33739;DHT22;20063;51.730;11.110;2023-06-10T15:03:35;23.20;99.90
33739;DHT22;20063;51.730;11.110;2023-06-10T15:06:01;22.90;99.90
33739;DHT22;20063;51.730;11.110;2023-06-10T15:08:27;22.60;99.90
33739;DHT22;20063;51.730;11.110;2023-06-10T15:10:53;22.30;99.90
33739;DHT22;20063;51.730;11.110;2023-06-10T15:13:19;22.00;99.90
33739;DHT22;20063;51.730;11.110;2023-06-10T15:15:45;21.60;99.90
33739;DHT22;20063;51.730;11.110;2023-06-10T15:18:11;21.10;99.90
33739;DHT22;20063;51.730;11.110;2023-06-10T15:20:36;20.80;99.90
33739;DHT22;20063;51.730;11.110;2023-06-10T15:23:01;20.50;99.90
33739;DHT22;20063;51.730;11.110;2023-06-10T15:25:27;20.20;99.90
33739;DHT22;20063;51.730;11.110;2023-06-10T15:27:53;19.90;99.90
33739;DHT22;20063;51.730;11.110;2023-06-10T15:30:18;19.60;99.90